sensor_id;sensor_type;location;lat;lon;timestamp;temperature;humidity
46139;DHT22;32398;49.112;8.598;2024-03-02T00:00:36;6.00;99.90
46139;DHT22;32398;49.112;8.598;2024-03-02T00:03:04;6.00;99.90
46139;DHT22;32398;49.112;8.598;2024-03-02T00:05:30;6.00;99.90
46139;DHT22;32398;49.112;8.598;2024-03-02T00:07:57;6.10;99.90
46139;DHT22;32398;49.112;8.598;2024-03-02T00:10:24;6.00;99.90
46139;DHT22;32398;49.112;8.598;2024-03-02T00:12:56;6.00;99.90
46139;DHT22;32398;49.112;8.598;2024-03-02T00:18:09;6.00;99.90
46139;DHT22;32398;49.112;8.598;2024-03-02T00:20:37;6.00;99.90
46139;DHT22;32398;49.112;8.598;2024-03-02T00:23:04;6.00;99.90
46139;DHT22;32398;49.112;8.598;2024-03-02T00:25:35;6.00;99.90
46139;DHT22;32398;49.112;8.598;2024-03-02T00:28:04;5.90;99.90
46139;DHT22;32398;49.112;8.598;2024-03-02T00:30:39;5.90;99.90
46139;DHT22;32398;49.112;8.598;2024-03-02T00:33:12;5.90;99.90
46139;DHT22;32398;49.112;8.598;2024-03-02T00:35:38;5.90;99.90
46139;DHT22;32398;49.112;8.598;2024-03-02T00:38:05;5.90;99.90
46139;DHT22;32398;49.112;8.598;2024-03-02T00:40:32;5.90;99.90
46139;DHT22;32398;49.112;8.598;2024-03-02T00:42:59;5.90;99.90
46139;DHT22;32398;49.112;8.598;2024-03-02T00:45:27;5.90;99.90
46139;DHT22;32398;49.112;8.598;2024-03-02T00:47:54;5.80;99.90
46139;DHT22;32398;49.112;8.598;2024-03-02T00:50:20;5.80;99.90
46139;DHT22;32398;49.112;8.598;2024-03-02T00:52:47;5.80;99.90
46139;DHT22;32398;49.112;8.598;2024-03-02T00:55:14;6.20;99.90
46139;DHT22;32398;49.112;8.598;2024-03-02T00:57:44;5.80;99.90
46139;DHT22;32398;49.112;8.598;2024-03-02T01:00:11;5.80;99.90
46139;DHT22;32398;49.112;8.598;2024-03-02T01:02:42;5.80;99.90
46139;DHT22;32398;49.112;8.598;2024-03-02T01:05:10;5.80;99.90
46139;DHT22;32398;49.112;8.598;2024-03-02T01:07:37;5.70;99.90
46139;DHT22;32398;49.112;8.598;2024-03-02T01:10:05;5.70;99.90
46139;DHT22;32398;49.112;8.598;2024-03-02T01:12:31;5.70;99.90
46139;DHT22;32398;49.112;8.598;2024-03-02T01:14:58;5.70;99.90
46139;DHT22;32398;49.112;8.598;2024-03-02T01:17:24;5.70;99.90
46139;DHT22;32398;49.112;8.598;2024-03-02T01:19:53;5.70;99.90
46139;DHT22;32398;49.112;8.598;2024-03-02T01:22:19;5.70;99.90
46139;DHT22;32398;49.112;8.598;2024-03-02T01:24:50;5.70;99.90
46139;DHT22;32398;49.112;8.598;2024-03-02T01:27:16;5.70;99.90
46139;DHT22;32398;49.112;8.598;2024-03-02T01:29:44;5.60;99.90
46139;DHT22;32398;49.112;8.598;2024-03-02T01:32:10;5.60;99.90
46139;DHT22;32398;49.112;8.598;2024-03-02T01:34:37;5.60;99.90
46139;DHT22;32398;49.112;8.598;2024-03-02T01:37:05;5.60;99.90
46139;DHT22;32398;49.112;8.598;2024-03-02T01:39:32;5.60;99.90
46139;DHT22;32398;49.112;8.598;2024-03-02T01:41:58;5.60;99.90
46139;DHT22;32398;49.112;8.598;2024-03-02T01:44:25;5.60;99.90
46139;DHT22;32398;49.112;8.598;2024-03-02T01:46:52;5.50;99.90
46139;DHT22;32398;49.112;8.598;2024-03-02T01:49:19;5.50;99.90
46139;DHT22;32398;49.112;8.598;2024-03-02T01:51:45;5.50;99.90
46139;DHT22;32398;49.112;8.598;2024-03-02T01:54:13;5.50;99.90
46139;DHT22;32398;49.112;8.598;2024-03-02T01:56:40;5.50;99.90
46139;DHT22;32398;49.112;8.598;2024-03-02T01:59:07;5.50;99.90
46139;DHT22;32398;49.112;8.598;2024-03-02T02:01:33;5.40;99.90
46139;DHT22;32398;49.112;8.598;2024-03-02T02:04:00;5.50;99.90
46139;DHT22;32398;49.112;8.598;2024-03-02T02:06:27;5.50;99.90
46139;DHT22;32398;49.112;8.598;2024-03-02T02:08:54;5.40;99.90
46139;DHT22;32398;49.112;8.598;2024-03-02T02:11:22;5.40;99.90
46139;DHT22;32398;49.112;8.598;2024-03-02T02:13:49;5.40;99.90
46139;DHT22;32398;49.112;8.598;2024-03-02T02:16:15;5.40;99.90
46139;DHT22;32398;49.112;8.598;2024-03-02T02:18:42;5.40;99.90
46139;DHT22;32398;49.112;8.598;2024-03-02T02:21:08;5.30;99.90
46139;DHT22;32398;49.112;8.598;2024-03-02T02:23:35;5.40;99.90
46139;DHT22;32398;49.112;8.598;2024-03-02T02:26:02;5.30;99.90
46139;DHT22;32398;49.112;8.598;2024-03-02T02:28:30;5.30;99.90
46139;DHT22;32398;49.112;8.598;2024-03-02T02:30:56;5.30;99.90
46139;DHT22;32398;49.112;8.598;2024-03-02T02:33:25;5.30;99.90
46139;DHT22;32398;49.112;8.598;2024-03-02T02:35:52;5.30;99.90
46139;DHT22;32398;49.112;8.598;2024-03-02T02:38:18;5.30;99.90
46139;DHT22;32398;49.112;8.598;2024-03-02T02:40:47;5.30;99.90
46139;DHT22;32398;49.112;8.598;2024-03-02T02:43:14;5.30;99.90
46139;DHT22;32398;49.112;8.598;2024-03-02T02:45:40;5.30;99.90
46139;DHT22;32398;49.112;8.598;2024-03-02T02:48:07;5.20;99.90
46139;DHT22;32398;49.112;8.598;2024-03-02T02:50:33;5.20;99.90
46139;DHT22;32398;49.112;8.598;2024-03-02T02:53:00;5.20;99.90
46139;DHT22;32398;49.112;8.598;2024-03-02T02:55:26;5.20;99.90
46139;DHT22;32398;49.112;8.598;2024-03-02T02:57:55;5.20;99.90
46139;DHT22;32398;49.112;8.598;2024-03-02T03:00:21;5.20;99.90
46139;DHT22;32398;49.112;8.598;2024-03-02T03:02:49;5.20;99.90
46139;DHT22;32398;49.112;8.598;2024-03-02T03:05:16;5.20;99.90
46139;DHT22;32398;49.112;8.598;2024-03-02T03:07:43;5.20;99.90
46139;DHT22;32398;49.112;8.598;2024-03-02T03:10:10;5.20;99.90
46139;DHT22;32398;49.112;8.598;2024-03-02T03:12:36;5.20;99.90
46139;DHT22;32398;49.112;8.598;2024-03-02T03:15:05;5.10;99.90
46139;DHT22;32398;49.112;8.598;2024-03-02T03:17:33;5.10;99.90
46139;DHT22;32398;49.112;8.598;2024-03-02T03:20:00;5.10;99.90
46139;DHT22;32398;49.112;8.598;2024-03-02T03:22:28;5.10;99.90
46139;DHT22;32398;49.112;8.598;2024-03-02T03:24:54;5.10;99.90
46139;DHT22;32398;49.112;8.598;2024-03-02T03:27:21;5.10;99.90
46139;DHT22;32398;49.112;8.598;2024-03-02T03:29:47;5.10;99.90
46139;DHT22;32398;49.112;8.598;2024-03-02T03:32:16;5.00;99.90
46139;DHT22;32398;49.112;8.598;2024-03-02T03:34:43;5.00;99.90
46139;DHT22;32398;49.112;8.598;2024-03-02T03:37:10;5.00;99.90
46139;DHT22;32398;49.112;8.598;2024-03-02T03:39:36;5.00;99.90
46139;DHT22;32398;49.112;8.598;2024-03-02T03:42:02;5.00;99.90
46139;DHT22;32398;49.112;8.598;2024-03-02T03:44:29;5.00;99.90
46139;DHT22;32398;49.112;8.598;2024-03-02T03:46:55;5.00;99.90
46139;DHT22;32398;49.112;8.598;2024-03-02T03:49:24;5.00;99.90
46139;DHT22;32398;49.112;8.598;2024-03-02T03:51:50;5.00;99.90
46139;DHT22;32398;49.112;8.598;2024-03-02T03:54:17;4.90;99.90
46139;DHT22;32398;49.112;8.598;2024-03-02T03:56:44;4.90;99.90
46139;DHT22;32398;49.112;8.598;2024-03-02T03:59:10;5.00;99.90
46139;DHT22;32398;49.112;8.598;2024-03-02T04:01:38;4.90;99.90
46139;DHT22;32398;49.112;8.598;2024-03-02T04:04:04;4.90;99.90
46139;DHT22;32398;49.112;8.598;2024-03-02T04:06:34;4.90;99.90
46139;DHT22;32398;49.112;8.598;2024-03-02T04:09:00;4.90;99.90
46139;DHT22;32398;49.112;8.598;2024-03-02T04:11:27;4.90;99.90
46139;DHT22;32398;49.112;8.598;2024-03-02T04:13:53;4.90;99.90
46139;DHT22;32398;49.112;8.598;2024-03-02T04:16:20;4.90;99.90
46139;DHT22;32398;49.112;8.598;2024-03-02T04:18:47;4.90;99.90
46139;DHT22;32398;49.112;8.598;2024-03-02T04:21:13;4.80;99.90
46139;DHT22;32398;49.112;8.598;2024-03-02T04:23:42;4.80;99.90
46139;DHT22;32398;49.112;8.598;2024-03-02T04:26:08;4.80;99.90
46139;DHT22;32398;49.112;8.598;2024-03-02T04:28:35;4.90;99.90
46139;DHT22;32398;49.112;8.598;2024-03-02T04:31:01;4.80;99.90
46139;DHT22;32398;49.112;8.598;2024-03-02T04:33:28;4.80;99.90
46139;DHT22;32398;49.112;8.598;2024-03-02T04:35:55;4.80;99.90
46139;DHT22;32398;49.112;8.598;2024-03-02T04:38:22;4.80;99.90
46139;DHT22;32398;49.112;8.598;2024-03-02T04:40:51;4.80;99.90
46139;DHT22;32398;49.112;8.598;2024-03-02T04:43:17;4.70;99.90
46139;DHT22;32398;49.112;8.598;2024-03-02T04:45:44;4.70;99.90
46139;DHT22;32398;49.112;8.598;2024-03-02T04:48:11;4.70;99.90
46139;DHT22;32398;49.112;8.598;2024-03-02T04:50:38;4.70;99.90
46139;DHT22;32398;49.112;8.598;2024-03-02T04:53:05;4.70;99.90
46139;DHT22;32398;49.112;8.598;2024-03-02T04:55:31;4.80;99.90
46139;DHT22;32398;49.112;8.598;2024-03-02T04:58:31;4.70;99.90
46139;DHT22;32398;49.112;8.598;2024-03-02T05:00:58;4.70;99.90
46139;DHT22;32398;49.112;8.598;2024-03-02T05:03:24;4.70;99.90
46139;DHT22;32398;49.112;8.598;2024-03-02T05:05:51;4.70;99.90
46139;DHT22;32398;49.112;8.598;2024-03-02T05:08:18;4.70;99.90
46139;DHT22;32398;49.112;8.598;2024-03-02T05:10:44;4.70;99.90
46139;DHT22;32398;49.112;8.598;2024-03-02T05:13:11;4.70;99.90
46139;DHT22;32398;49.112;8.598;2024-03-02T05:15:38;4.60;99.90
46139;DHT22;32398;49.112;8.598;2024-03-02T05:18:06;4.60;99.90
46139;DHT22;32398;49.112;8.598;2024-03-02T05:20:34;4.60;99.90
46139;DHT22;32398;49.112;8.598;2024-03-02T05:23:01;4.60;99.90
46139;DHT22;32398;49.112;8.598;2024-03-02T05:25:27;4.60;99.90
46139;DHT22;32398;49.112;8.598;2024-03-02T05:27:54;4.60;99.90
46139;DHT22;32398;49.112;8.598;2024-03-02T05:30:21;4.60;99.90
46139;DHT22;32398;49.112;8.598;2024-03-02T05:32:49;4.60;99.90
46139;DHT22;32398;49.112;8.598;2024-03-02T05:35:15;4.60;99.90
46139;DHT22;32398;49.112;8.598;2024-03-02T05:37:42;4.60;99.90
46139;DHT22;32398;49.112;8.598;2024-03-02T05:40:09;4.60;99.90
46139;DHT22;32398;49.112;8.598;2024-03-02T05:42:36;4.60;99.90
46139;DHT22;32398;49.112;8.598;2024-03-02T05:45:04;4.50;99.90
46139;DHT22;32398;49.112;8.598;2024-03-02T05:47:30;4.60;99.90
46139;DHT22;32398;49.112;8.598;2024-03-02T05:50:00;4.50;99.90
46139;DHT22;32398;49.112;8.598;2024-03-02T05:52:26;4.50;99.90
46139;DHT22;32398;49.112;8.598;2024-03-02T05:54:53;4.50;99.90
46139;DHT22;32398;49.112;8.598;2024-03-02T05:57:19;4.50;99.90
46139;DHT22;32398;49.112;8.598;2024-03-02T05:59:59;4.50;99.90
46139;DHT22;32398;49.112;8.598;2024-03-02T06:02:25;4.50;99.90
46139;DHT22;32398;49.112;8.598;2024-03-02T06:04:53;4.50;99.90
46139;DHT22;32398;49.112;8.598;2024-03-02T06:07:22;4.50;99.90
46139;DHT22;32398;49.112;8.598;2024-03-02T06:09:48;4.50;99.90
46139;DHT22;32398;49.112;8.598;2024-03-02T06:12:17;4.40;99.90
46139;DHT22;32398;49.112;8.598;2024-03-02T06:14:44;4.40;99.90
46139;DHT22;32398;49.112;8.598;2024-03-02T06:17:11;4.40;99.90
46139;DHT22;32398;49.112;8.598;2024-03-02T06:19:38;4.40;99.90
46139;DHT22;32398;49.112;8.598;2024-03-02T06:22:05;4.40;99.90
46139;DHT22;32398;49.112;8.598;2024-03-02T06:24:37;4.40;99.90
46139;DHT22;32398;49.112;8.598;2024-03-02T06:27:04;4.40;99.90
46139;DHT22;32398;49.112;8.598;2024-03-02T06:29:32;4.40;99.90
46139;DHT22;32398;49.112;8.598;2024-03-02T06:31:58;4.40;99.90
46139;DHT22;32398;49.112;8.598;2024-03-02T06:34:25;4.30;99.90
46139;DHT22;32398;49.112;8.598;2024-03-02T06:36:52;4.40;99.90
46139;DHT22;32398;49.112;8.598;2024-03-02T06:39:19;4.30;99.90
46139;DHT22;32398;49.112;8.598;2024-03-02T06:41:47;4.30;99.90
46139;DHT22;32398;49.112;8.598;2024-03-02T06:44:14;4.30;99.90
46139;DHT22;32398;49.112;8.598;2024-03-02T06:46:41;4.30;99.90
46139;DHT22;32398;49.112;8.598;2024-03-02T06:49:08;4.30;99.90
46139;DHT22;32398;49.112;8.598;2024-03-02T06:51:35;4.30;99.90
46139;DHT22;32398;49.112;8.598;2024-03-02T06:54:02;4.30;99.90
46139;DHT22;32398;49.112;8.598;2024-03-02T06:56:29;4.30;99.90
46139;DHT22;32398;49.112;8.598;2024-03-02T06:58:57;4.30;99.90
46139;DHT22;32398;49.112;8.598;2024-03-02T07:01:24;4.30;99.90
46139;DHT22;32398;49.112;8.598;2024-03-02T07:03:51;4.30;99.90
46139;DHT22;32398;49.112;8.598;2024-03-02T07:06:18;4.30;99.90
46139;DHT22;32398;49.112;8.598;2024-03-02T07:08:45;4.20;99.90
46139;DHT22;32398;49.112;8.598;2024-03-02T07:11:11;4.30;99.90
46139;DHT22;32398;49.112;8.598;2024-03-02T07:13:38;4.30;99.90
46139;DHT22;32398;49.112;8.598;2024-03-02T07:16:07;4.20;99.90
46139;DHT22;32398;49.112;8.598;2024-03-02T07:18:53;4.20;99.90
46139;DHT22;32398;49.112;8.598;2024-03-02T07:21:20;4.20;99.90
46139;DHT22;32398;49.112;8.598;2024-03-02T07:23:48;4.20;99.90
46139;DHT22;32398;49.112;8.598;2024-03-02T07:26:15;4.20;99.90
46139;DHT22;32398;49.112;8.598;2024-03-02T07:28:43;4.20;99.90
46139;DHT22;32398;49.112;8.598;2024-03-02T07:31:11;4.20;99.90
46139;DHT22;32398;49.112;8.598;2024-03-02T07:33:38;4.20;99.90
46139;DHT22;32398;49.112;8.598;2024-03-02T07:36:05;4.20;99.90
46139;DHT22;32398;49.112;8.598;2024-03-02T07:38:32;4.20;99.90
46139;DHT22;32398;49.112;8.598;2024-03-02T07:41:01;4.20;99.90
46139;DHT22;32398;49.112;8.598;2024-03-02T07:43:30;4.20;99.90
46139;DHT22;32398;49.112;8.598;2024-03-02T07:45:58;4.20;99.90
46139;DHT22;32398;49.112;8.598;2024-03-02T07:48:26;4.20;99.90
46139;DHT22;32398;49.112;8.598;2024-03-02T07:50:53;4.10;99.90
46139;DHT22;32398;49.112;8.598;2024-03-02T07:53:22;4.10;99.90
46139;DHT22;32398;49.112;8.598;2024-03-02T07:55:49;4.20;99.90
46139;DHT22;32398;49.112;8.598;2024-03-02T07:58:15;4.10;99.90
46139;DHT22;32398;49.112;8.598;2024-03-02T08:00:43;4.10;99.90
46139;DHT22;32398;49.112;8.598;2024-03-02T08:03:10;4.20;99.90
46139;DHT22;32398;49.112;8.598;2024-03-02T08:05:39;4.20;99.90
46139;DHT22;32398;49.112;8.598;2024-03-02T08:08:05;4.20;99.90
46139;DHT22;32398;49.112;8.598;2024-03-02T08:10:32;4.10;99.90
46139;DHT22;32398;49.112;8.598;2024-03-02T08:12:59;4.20;99.90
46139;DHT22;32398;49.112;8.598;2024-03-02T08:15:26;4.20;99.90
46139;DHT22;32398;49.112;8.598;2024-03-02T08:17:52;4.20;99.90
46139;DHT22;32398;49.112;8.598;2024-03-02T08:20:19;4.20;99.90
46139;DHT22;32398;49.112;8.598;2024-03-02T08:22:47;4.20;99.90
46139;DHT22;32398;49.112;8.598;2024-03-02T08:25:14;4.20;99.90
46139;DHT22;32398;49.112;8.598;2024-03-02T08:27:41;4.20;99.90
46139;DHT22;32398;49.112;8.598;2024-03-02T08:30:08;4.20;99.90
46139;DHT22;32398;49.112;8.598;2024-03-02T08:32:36;4.20;99.90
46139;DHT22;32398;49.112;8.598;2024-03-02T08:35:03;4.20;99.90
46139;DHT22;32398;49.112;8.598;2024-03-02T08:37:29;4.20;99.90
46139;DHT22;32398;49.112;8.598;2024-03-02T08:39:57;4.30;99.90
46139;DHT22;32398;49.112;8.598;2024-03-02T08:42:25;4.30;99.90
46139;DHT22;32398;49.112;8.598;2024-03-02T08:44:52;4.30;99.90
46139;DHT22;32398;49.112;8.598;2024-03-02T08:47:21;4.40;99.90
46139;DHT22;32398;49.112;8.598;2024-03-02T08:49:47;4.40;99.90
46139;DHT22;32398;49.112;8.598;2024-03-02T08:52:14;4.40;99.90
46139;DHT22;32398;49.112;8.598;2024-03-02T08:54:41;4.50;99.90
46139;DHT22;32398;49.112;8.598;2024-03-02T08:57:09;4.50;99.90
46139;DHT22;32398;49.112;8.598;2024-03-02T08:59:35;4.60;99.90
46139;DHT22;32398;49.112;8.598;2024-03-02T09:02:02;4.60;99.90
46139;DHT22;32398;49.112;8.598;2024-03-02T09:04:29;4.60;99.90
46139;DHT22;32398;49.112;8.598;2024-03-02T09:06:56;4.70;99.90
46139;DHT22;32398;49.112;8.598;2024-03-02T09:09:23;4.70;99.90
46139;DHT22;32398;49.112;8.598;2024-03-02T09:11:49;4.80;99.90
46139;DHT22;32398;49.112;8.598;2024-03-02T09:14:18;4.80;99.90
46139;DHT22;32398;49.112;8.598;2024-03-02T09:16:44;4.90;99.90
46139;DHT22;32398;49.112;8.598;2024-03-02T09:19:13;4.90;99.90
46139;DHT22;32398;49.112;8.598;2024-03-02T09:21:41;4.90;99.90
46139;DHT22;32398;49.112;8.598;2024-03-02T09:24:08;5.00;99.90
46139;DHT22;32398;49.112;8.598;2024-03-02T09:26:35;5.00;99.90
46139;DHT22;32398;49.112;8.598;2024-03-02T09:29:02;5.10;99.90
46139;DHT22;32398;49.112;8.598;2024-03-02T09:31:31;5.10;99.90
46139;DHT22;32398;49.112;8.598;2024-03-02T09:33:57;5.20;99.90
46139;DHT22;32398;49.112;8.598;2024-03-02T09:36:24;5.20;99.90
46139;DHT22;32398;49.112;8.598;2024-03-02T09:38:50;5.30;99.90
46139;DHT22;32398;49.112;8.598;2024-03-02T09:41:17;5.30;99.90
46139;DHT22;32398;49.112;8.598;2024-03-02T09:43:44;5.30;99.90
46139;DHT22;32398;49.112;8.598;2024-03-02T09:46:10;5.40;99.90
46139;DHT22;32398;49.112;8.598;2024-03-02T09:48:40;5.50;99.90
46139;DHT22;32398;49.112;8.598;2024-03-02T09:51:09;5.50;99.90
46139;DHT22;32398;49.112;8.598;2024-03-02T09:53:36;5.60;99.90
46139;DHT22;32398;49.112;8.598;2024-03-02T09:56:03;5.70;99.90
46139;DHT22;32398;49.112;8.598;2024-03-02T09:58:31;5.80;99.90
46139;DHT22;32398;49.112;8.598;2024-03-02T10:00:57;5.90;99.90
46139;DHT22;32398;49.112;8.598;2024-03-02T10:03:24;5.90;99.90
46139;DHT22;32398;49.112;8.598;2024-03-02T10:05:52;6.00;99.90
46139;DHT22;32398;49.112;8.598;2024-03-02T10:08:19;6.10;99.90
46139;DHT22;32398;49.112;8.598;2024-03-02T10:10:45;6.20;99.90
46139;DHT22;32398;49.112;8.598;2024-03-02T10:13:12;6.30;99.90
46139;DHT22;32398;49.112;8.598;2024-03-02T10:15:39;6.30;99.90
46139;DHT22;32398;49.112;8.598;2024-03-02T10:18:08;6.40;99.90
46139;DHT22;32398;49.112;8.598;2024-03-02T10:20:35;6.40;99.90
46139;DHT22;32398;49.112;8.598;2024-03-02T10:23:12;6.50;99.90
46139;DHT22;32398;49.112;8.598;2024-03-02T10:25:39;6.60;99.90
46139;DHT22;32398;49.112;8.598;2024-03-02T10:28:10;6.70;99.90
46139;DHT22;32398;49.112;8.598;2024-03-02T10:30:37;6.80;99.90
46139;DHT22;32398;49.112;8.598;2024-03-02T10:33:05;6.90;99.90
46139;DHT22;32398;49.112;8.598;2024-03-02T10:35:32;6.90;99.90
46139;DHT22;32398;49.112;8.598;2024-03-02T10:38:03;7.00;99.90
46139;DHT22;32398;49.112;8.598;2024-03-02T10:40:31;7.10;99.90
46139;DHT22;32398;49.112;8.598;2024-03-02T10:42:58;7.20;99.90
46139;DHT22;32398;49.112;8.598;2024-03-02T10:45:25;7.20;99.90
46139;DHT22;32398;49.112;8.598;2024-03-02T10:47:52;7.30;99.90
46139;DHT22;32398;49.112;8.598;2024-03-02T10:50:19;7.40;99.90
46139;DHT22;32398;49.112;8.598;2024-03-02T10:52:45;7.50;99.90
46139;DHT22;32398;49.112;8.598;2024-03-02T10:55:12;7.50;99.90
46139;DHT22;32398;49.112;8.598;2024-03-02T10:57:49;7.60;99.90
46139;DHT22;32398;49.112;8.598;2024-03-02T11:00:17;7.70;99.90
46139;DHT22;32398;49.112;8.598;2024-03-02T11:02:50;7.80;99.90
46139;DHT22;32398;49.112;8.598;2024-03-02T11:05:20;7.90;99.90
46139;DHT22;32398;49.112;8.598;2024-03-02T11:07:51;7.90;99.90
46139;DHT22;32398;49.112;8.598;2024-03-02T11:10:18;8.10;99.90
46139;DHT22;32398;49.112;8.598;2024-03-02T11:12:51;8.10;99.90
46139;DHT22;32398;49.112;8.598;2024-03-02T11:15:19;8.20;99.90
46139;DHT22;32398;49.112;8.598;2024-03-02T11:17:47;8.20;99.90
46139;DHT22;32398;49.112;8.598;2024-03-02T11:20:14;8.30;99.90
46139;DHT22;32398;49.112;8.598;2024-03-02T11:22:44;8.40;99.90
46139;DHT22;32398;49.112;8.598;2024-03-02T11:25:22;8.50;99.90
46139;DHT22;32398;49.112;8.598;2024-03-02T11:28:00;8.60;99.90
46139;DHT22;32398;49.112;8.598;2024-03-02T11:33:22;8.70;99.90
46139;DHT22;32398;49.112;8.598;2024-03-02T11:35:50;8.80;99.90
46139;DHT22;32398;49.112;8.598;2024-03-02T11:38:17;8.90;99.90
46139;DHT22;32398;49.112;8.598;2024-03-02T11:40:44;9.00;99.90
46139;DHT22;32398;49.112;8.598;2024-03-02T11:43:12;9.10;99.90
46139;DHT22;32398;49.112;8.598;2024-03-02T11:45:39;9.10;99.90
46139;DHT22;32398;49.112;8.598;2024-03-02T11:48:09;9.20;99.90
46139;DHT22;32398;49.112;8.598;2024-03-02T11:50:39;9.30;99.90
46139;DHT22;32398;49.112;8.598;2024-03-02T11:53:07;9.30;99.90
46139;DHT22;32398;49.112;8.598;2024-03-02T11:55:34;9.40;99.70
46139;DHT22;32398;49.112;8.598;2024-03-02T11:58:01;9.50;99.80
46139;DHT22;32398;49.112;8.598;2024-03-02T12:00:30;9.60;99.60
46139;DHT22;32398;49.112;8.598;2024-03-02T12:02:59;9.60;99.50
46139;DHT22;32398;49.112;8.598;2024-03-02T12:05:26;9.70;99.50
46139;DHT22;32398;49.112;8.598;2024-03-02T12:07:55;9.80;99.50
46139;DHT22;32398;49.112;8.598;2024-03-02T12:10:22;9.80;99.40
46139;DHT22;32398;49.112;8.598;2024-03-02T12:12:54;9.90;99.30
46139;DHT22;32398;49.112;8.598;2024-03-02T12:15:22;10.00;99.30
46139;DHT22;32398;49.112;8.598;2024-03-02T12:17:53;10.10;99.10
46139;DHT22;32398;49.112;8.598;2024-03-02T12:20:20;10.20;99.00
46139;DHT22;32398;49.112;8.598;2024-03-02T12:22:49;10.20;98.90
46139;DHT22;32398;49.112;8.598;2024-03-02T12:25:15;10.20;98.90
46139;DHT22;32398;49.112;8.598;2024-03-02T12:27:42;10.30;98.70
46139;DHT22;32398;49.112;8.598;2024-03-02T12:30:10;10.40;98.70
46139;DHT22;32398;49.112;8.598;2024-03-02T12:32:37;10.40;98.60
46139;DHT22;32398;49.112;8.598;2024-03-02T12:35:06;10.50;98.50
46139;DHT22;32398;49.112;8.598;2024-03-02T12:37:37;10.60;98.30
46139;DHT22;32398;49.112;8.598;2024-03-02T12:40:09;10.60;97.80
46139;DHT22;32398;49.112;8.598;2024-03-02T12:42:35;10.70;98.00
46139;DHT22;32398;49.112;8.598;2024-03-02T12:45:02;10.80;98.00
46139;DHT22;32398;49.112;8.598;2024-03-02T12:47:29;10.80;98.00
46139;DHT22;32398;49.112;8.598;2024-03-02T12:49:56;10.90;97.30
46139;DHT22;32398;49.112;8.598;2024-03-02T12:52:26;11.00;97.70
46139;DHT22;32398;49.112;8.598;2024-03-02T12:54:52;11.00;97.50
46139;DHT22;32398;49.112;8.598;2024-03-02T12:57:25;11.10;97.50
46139;DHT22;32398;49.112;8.598;2024-03-02T12:59:51;11.10;97.20
46139;DHT22;32398;49.112;8.598;2024-03-02T13:02:18;11.20;96.80
46139;DHT22;32398;49.112;8.598;2024-03-02T13:04:51;11.30;97.20
46139;DHT22;32398;49.112;8.598;2024-03-02T13:07:19;11.30;96.80
46139;DHT22;32398;49.112;8.598;2024-03-02T13:09:48;11.30;96.80
46139;DHT22;32398;49.112;8.598;2024-03-02T13:12:15;11.40;96.90
46139;DHT22;32398;49.112;8.598;2024-03-02T13:14:42;11.50;96.50
46139;DHT22;32398;49.112;8.598;2024-03-02T13:17:09;11.50;96.70
46139;DHT22;32398;49.112;8.598;2024-03-02T13:19:36;11.60;96.80
46139;DHT22;32398;49.112;8.598;2024-03-02T13:22:02;11.60;96.50
46139;DHT22;32398;49.112;8.598;2024-03-02T13:24:30;11.70;96.60
46139;DHT22;32398;49.112;8.598;2024-03-02T13:26:58;11.70;96.50
46139;DHT22;32398;49.112;8.598;2024-03-02T13:29:25;11.80;96.40
46139;DHT22;32398;49.112;8.598;2024-03-02T13:31:53;11.80;96.20
46139;DHT22;32398;49.112;8.598;2024-03-02T13:34:19;11.90;96.10
46139;DHT22;32398;49.112;8.598;2024-03-02T13:36:46;11.90;95.70
46139;DHT22;32398;49.112;8.598;2024-03-02T13:39:13;12.00;96.10
46139;DHT22;32398;49.112;8.598;2024-03-02T13:41:40;12.00;96.00
46139;DHT22;32398;49.112;8.598;2024-03-02T13:44:08;12.10;95.50
46139;DHT22;32398;49.112;8.598;2024-03-02T13:46:35;12.10;95.60
46139;DHT22;32398;49.112;8.598;2024-03-02T13:49:02;12.20;95.70
46139;DHT22;32398;49.112;8.598;2024-03-02T13:51:29;12.20;95.50
46139;DHT22;32398;49.112;8.598;2024-03-02T13:53:57;12.20;95.70
46139;DHT22;32398;49.112;8.598;2024-03-02T13:56:24;12.30;95.80
46139;DHT22;32398;49.112;8.598;2024-03-02T13:58:51;12.30;95.00
46139;DHT22;32398;49.112;8.598;2024-03-02T14:01:19;12.40;95.40
46139;DHT22;32398;49.112;8.598;2024-03-02T14:03:45;12.40;95.20
46139;DHT22;32398;49.112;8.598;2024-03-02T14:06:12;12.40;95.20
46139;DHT22;32398;49.112;8.598;2024-03-02T14:08:39;12.50;95.60
46139;DHT22;32398;49.112;8.598;2024-03-02T14:11:10;12.50;95.40
46139;DHT22;32398;49.112;8.598;2024-03-02T14:13:40;12.50;95.40
46139;DHT22;32398;49.112;8.598;2024-03-02T14:16:06;12.60;95.50
46139;DHT22;32398;49.112;8.598;2024-03-02T14:18:35;12.60;95.30
46139;DHT22;32398;49.112;8.598;2024-03-02T14:21:02;12.60;95.20
46139;DHT22;32398;49.112;8.598;2024-03-02T14:23:29;12.60;95.30
46139;DHT22;32398;49.112;8.598;2024-03-02T14:25:55;12.60;95.20
46139;DHT22;32398;49.112;8.598;2024-03-02T14:28:24;12.70;95.30
46139;DHT22;32398;49.112;8.598;2024-03-02T14:30:51;12.60;95.20
46139;DHT22;32398;49.112;8.598;2024-03-02T14:33:17;12.70;95.30
46139;DHT22;32398;49.112;8.598;2024-03-02T14:35:45;12.70;95.40
46139;DHT22;32398;49.112;8.598;2024-03-02T14:38:12;12.70;95.30
46139;DHT22;32398;49.112;8.598;2024-03-02T14:40:39;12.70;95.30
46139;DHT22;32398;49.112;8.598;2024-03-02T14:43:05;12.70;95.30
46139;DHT22;32398;49.112;8.598;2024-03-02T14:45:32;12.70;95.30
46139;DHT22;32398;49.112;8.598;2024-03-02T14:47:58;12.70;95.30
46139;DHT22;32398;49.112;8.598;2024-03-02T14:50:25;12.70;95.30
46139;DHT22;32398;49.112;8.598;2024-03-02T14:52:53;12.70;95.50
46139;DHT22;32398;49.112;8.598;2024-03-02T14:55:22;12.80;95.40
46139;DHT22;32398;49.112;8.598;2024-03-02T14:57:49;12.70;95.40
46139;DHT22;32398;49.112;8.598;2024-03-02T15:00:16;12.70;95.30
46139;DHT22;32398;49.112;8.598;2024-03-02T15:02:43;12.70;95.40
46139;DHT22;32398;49.112;8.598;2024-03-02T15:05:09;12.70;95.30
46139;DHT22;32398;49.112;8.598;2024-03-02T15:07:36;12.70;95.50
46139;DHT22;32398;49.112;8.598;2024-03-02T15:10:06;12.70;95.70
46139;DHT22;32398;49.112;8.598;2024-03-02T15:12:33;12.70;95.50
46139;DHT22;32398;49.112;8.598;2024-03-02T15:15:00;12.60;95.30
46139;DHT22;32398;49.112;8.598;2024-03-02T15:17:26;12.60;95.40
46139;DHT22;32398;49.112;8.598;2024-03-02T15:19:53;12.60;95.50
46139;DHT22;32398;49.112;8.598;2024-03-02T15:22:19;12.60;95.60
46139;DHT22;32398;49.112;8.598;2024-03-02T15:24:46;12.60;95.60
46139;DHT22;32398;49.112;8.598;2024-03-02T15:27:14;12.60;95.60
46139;DHT22;32398;49.112;8.598;2024-03-02T15:29:41;12.50;95.50
46139;DHT22;32398;49.112;8.598;2024-03-02T15:32:07;12.50;95.90
46139;DHT22;32398;49.112;8.598;2024-03-02T15:34:34;12.50;96.00
46139;DHT22;32398;49.112;8.598;2024-03-02T15:37:01;12.50;95.90
46139;DHT22;32398;49.112;8.598;2024-03-02T15:39:28;12.50;95.90
46139;DHT22;32398;49.112;8.598;2024-03-02T15:41:55;12.50;95.90
46139;DHT22;32398;49.112;8.598;2024-03-02T15:44:23;12.50;96.00
46139;DHT22;32398;49.112;8.598;2024-03-02T15:46:50;12.40;96.00
46139;DHT22;32398;49.112;8.598;2024-03-02T15:49:17;12.40;96.20